SWR2TV LSZH-LIRN
Flight info
| Callsign | SWR2TV |
|---|---|
| Flight time | N/A |
| Altitude | 37000 |
| Route | VEBIT T53 GERSA N850 SOSON DCT ODINA DCT LOMED DCT EVULI DCT ERIKA |
| Aircraft | A321/M-SDE3FGHIRWY/LB1 |
Departure
| Time | 2026-05-05 23:18 |
|---|---|
| Airport | Zürich Airport (LSZH) |
Arrival
| Time | N/A |
|---|---|
| Airport | Naples International Airport (LIRN) |
| Time | Latitude | Longitude | Altitude | Speed | Heading |
|---|---|---|---|---|---|
| 2026-05-05 22:58 | 47.45405 | 8.56117 | 1407 ft | 0 kts | 185° |
| 2026-05-05 23:07 | 47.45406 | 8.56117 | 1407 ft | 1 kts | 185° |
| 2026-05-05 23:08 | 47.45422 | 8.56120 | 1414 ft | 3 kts | 191° |
| 2026-05-05 23:08 | 47.45441 | 8.56127 | 1410 ft | 3 kts | 202° |
| 2026-05-05 23:08 | 47.45459 | 8.56141 | 1407 ft | 3 kts | 217° |
| 2026-05-05 23:08 | 47.45474 | 8.56160 | 1415 ft | 3 kts | 233° |
| 2026-05-05 23:09 | 47.45485 | 8.56185 | 1409 ft | 3 kts | 248° |
| 2026-05-05 23:09 | 47.45491 | 8.56214 | 1414 ft | 3 kts | 256° |
| 2026-05-05 23:09 | 47.45496 | 8.56242 | 1410 ft | 3 kts | 246° |
| 2026-05-05 23:09 | 47.45501 | 8.56255 | 1413 ft | 0 kts | 230° |
| 2026-05-05 23:12 | 47.45492 | 8.56239 | 1411 ft | 7 kts | 230° |
| 2026-05-05 23:12 | 47.45480 | 8.56136 | 1411 ft | 14 kts | 272° |
| 2026-05-05 23:12 | 47.45493 | 8.55964 | 1407 ft | 20 kts | 276° |
| 2026-05-05 23:12 | 47.45509 | 8.55739 | 1412 ft | 23 kts | 276° |
| 2026-05-05 23:13 | 47.45525 | 8.55509 | 1409 ft | 23 kts | 276° |
| 2026-05-05 23:13 | 47.45545 | 8.55292 | 1402 ft | 13 kts | 302° |
| 2026-05-05 23:13 | 47.45625 | 8.55214 | 1402 ft | 15 kts | 335° |
| 2026-05-05 23:13 | 47.45724 | 8.55146 | 1401 ft | 17 kts | 335° |
| 2026-05-05 23:14 | 47.45849 | 8.55059 | 1395 ft | 25 kts | 335° |
| 2026-05-05 23:14 | 47.46039 | 8.54926 | 1387 ft | 36 kts | 335° |
| 2026-05-05 23:14 | 47.46273 | 8.54766 | 1385 ft | 35 kts | 335° |
| 2026-05-05 23:14 | 47.46494 | 8.54615 | 1386 ft | 34 kts | 334° |
| 2026-05-05 23:15 | 47.46706 | 8.54467 | 1385 ft | 34 kts | 337° |
| 2026-05-05 23:15 | 47.46924 | 8.54332 | 1382 ft | 33 kts | 335° |
| 2026-05-05 23:15 | 47.47128 | 8.54192 | 1383 ft | 31 kts | 335° |
| 2026-05-05 23:15 | 47.47320 | 8.54059 | 1387 ft | 30 kts | 335° |
| 2026-05-05 23:16 | 47.47498 | 8.53936 | 1398 ft | 27 kts | 335° |
| 2026-05-05 23:16 | 47.47602 | 8.53840 | 1405 ft | 13 kts | 301° |
| 2026-05-05 23:16 | 47.47603 | 8.53729 | 1406 ft | 10 kts | 249° |
| 2026-05-05 23:16 | 47.47570 | 8.53657 | 1404 ft | 7 kts | 223° |
| 2026-05-05 23:17 | 47.47541 | 8.53633 | 1401 ft | 7 kts | 199° |
| 2026-05-05 23:17 | 47.47489 | 8.53650 | 1404 ft | 9 kts | 153° |
| 2026-05-05 23:17 | 47.47451 | 8.53677 | 1400 ft | 6 kts | 155° |
| 2026-05-05 23:17 | 47.47182 | 8.53861 | 1385 ft | 89 kts | 155° |
| 2026-05-05 23:18 | 47.46684 | 8.54203 | 1380 ft | 143 kts | 155° |
| 2026-05-05 23:18 | 47.45598 | 8.54938 | 1597 ft | 187 kts | 156° |
| 2026-05-05 23:18 | 47.44425 | 8.55715 | 2692 ft | 185 kts | 158° |
| 2026-05-05 23:18 | 47.43244 | 8.56496 | 3367 ft | 189 kts | 162° |
| 2026-05-05 23:19 | 47.42004 | 8.57417 | 3582 ft | 214 kts | 146° |
| 2026-05-05 23:19 | 47.41179 | 8.59323 | 3863 ft | 237 kts | 105° |
| 2026-05-05 23:19 | 47.41354 | 8.61757 | 4357 ft | 247 kts | 61° |
| 2026-05-05 23:19 | 47.42525 | 8.63538 | 4991 ft | 244 kts | 20° |
| 2026-05-05 23:20 | 47.44139 | 8.63877 | 5631 ft | 233 kts | 340° |
| 2026-05-05 23:20 | 47.45463 | 8.62701 | 6264 ft | 221 kts | 301° |
| 2026-05-05 23:20 | 47.46026 | 8.60666 | 6758 ft | 214 kts | 269° |
| 2026-05-05 23:20 | 47.45943 | 8.58479 | 7185 ft | 215 kts | 262° |
| 2026-05-05 23:21 | 47.45815 | 8.56265 | 7627 ft | 218 kts | 262° |
| 2026-05-05 23:21 | 47.45693 | 8.54023 | 8061 ft | 221 kts | 262° |
| 2026-05-05 23:21 | 47.45388 | 8.51731 | 8193 ft | 235 kts | 243° |
| 2026-05-05 23:21 | 47.44336 | 8.49827 | 8346 ft | 252 kts | 213° |
| 2026-05-05 23:22 | 47.42631 | 8.49045 | 8811 ft | 268 kts | 182° |
| 2026-05-05 23:22 | 47.40759 | 8.49463 | 9479 ft | 275 kts | 173° |
| 2026-05-05 23:22 | 47.38850 | 8.49800 | 10116 ft | 281 kts | 178° |
| 2026-05-05 23:22 | 47.36821 | 8.49973 | 10273 ft | 303 kts | 180° |
| 2026-05-05 23:23 | 47.34640 | 8.50096 | 10394 ft | 325 kts | 180° |
| 2026-05-05 23:23 | 47.32327 | 8.50548 | 10562 ft | 347 kts | 165° |
| 2026-05-05 23:23 | 47.30105 | 8.52097 | 11001 ft | 358 kts | 154° |
| 2026-05-05 23:23 | 47.27904 | 8.53866 | 11585 ft | 362 kts | 154° |
| 2026-05-05 23:24 | 47.25686 | 8.55665 | 12128 ft | 366 kts | 153° |
| 2026-05-05 23:24 | 47.23468 | 8.57469 | 12686 ft | 370 kts | 153° |
| 2026-05-05 23:24 | 47.21203 | 8.59311 | 13281 ft | 374 kts | 154° |
| 2026-05-05 23:24 | 47.18913 | 8.61167 | 13850 ft | 378 kts | 154° |
| 2026-05-05 23:25 | 47.16600 | 8.63035 | 14388 ft | 381 kts | 154° |
| 2026-05-05 23:25 | 47.14269 | 8.64910 | 14945 ft | 383 kts | 154° |
| 2026-05-05 23:25 | 47.11922 | 8.66794 | 15514 ft | 385 kts | 154° |
| 2026-05-05 23:25 | 47.09563 | 8.68689 | 16039 ft | 388 kts | 154° |
| 2026-05-05 23:26 | 47.07189 | 8.70593 | 16590 ft | 389 kts | 154° |
| 2026-05-05 23:26 | 47.04805 | 8.72505 | 17122 ft | 391 kts | 154° |
| 2026-05-05 23:26 | 47.02418 | 8.74421 | 17671 ft | 392 kts | 155° |
| 2026-05-05 23:26 | 47.00017 | 8.76344 | 18191 ft | 394 kts | 155° |
| 2026-05-05 23:27 | 46.97607 | 8.78272 | 18637 ft | 396 kts | 155° |
| 2026-05-05 23:27 | 46.95184 | 8.80209 | 19073 ft | 398 kts | 155° |
| 2026-05-05 23:27 | 46.92743 | 8.82157 | 19509 ft | 400 kts | 155° |
| 2026-05-05 23:27 | 46.90291 | 8.84111 | 19950 ft | 402 kts | 155° |
| 2026-05-05 23:28 | 46.87834 | 8.86069 | 20381 ft | 404 kts | 155° |
| 2026-05-05 23:28 | 46.85358 | 8.88039 | 20868 ft | 406 kts | 156° |
| 2026-05-05 23:28 | 46.82870 | 8.90020 | 21331 ft | 409 kts | 156° |
| 2026-05-05 23:28 | 46.80370 | 8.92012 | 21836 ft | 411 kts | 156° |
| 2026-05-05 23:29 | 46.77855 | 8.94010 | 22337 ft | 413 kts | 156° |
| 2026-05-05 23:29 | 46.75324 | 8.96014 | 22824 ft | 415 kts | 156° |
| 2026-05-05 23:29 | 46.72781 | 8.98025 | 23298 ft | 416 kts | 156° |
| 2026-05-05 23:29 | 46.70232 | 9.00041 | 23753 ft | 417 kts | 156° |
| 2026-05-05 23:30 | 46.67672 | 9.02061 | 24112 ft | 419 kts | 157° |
| 2026-05-05 23:30 | 46.65099 | 9.04092 | 24453 ft | 422 kts | 157° |
| 2026-05-05 23:30 | 46.62546 | 9.06103 | 24767 ft | 424 kts | 157° |
| 2026-05-05 23:30 | 46.59947 | 9.08147 | 25118 ft | 425 kts | 157° |
| 2026-05-05 23:31 | 46.57341 | 9.10197 | 25509 ft | 427 kts | 158° |
| 2026-05-05 23:31 | 46.54725 | 9.12253 | 25871 ft | 428 kts | 158° |
| 2026-05-05 23:31 | 46.52097 | 9.14312 | 26224 ft | 430 kts | 158° |
| 2026-05-05 23:31 | 46.49453 | 9.16383 | 26550 ft | 432 kts | 158° |
| 2026-05-05 23:32 | 46.46797 | 9.18466 | 26887 ft | 434 kts | 158° |
| 2026-05-05 23:32 | 46.44134 | 9.20552 | 27191 ft | 436 kts | 158° |
| 2026-05-05 23:32 | 46.41459 | 9.22644 | 27483 ft | 438 kts | 158° |
| 2026-05-05 23:32 | 46.38773 | 9.24745 | 27769 ft | 439 kts | 158° |
| 2026-05-05 23:33 | 46.36080 | 9.26844 | 28033 ft | 441 kts | 158° |
| 2026-05-05 23:33 | 46.33368 | 9.28955 | 28400 ft | 442 kts | 159° |
| 2026-05-05 23:33 | 46.30660 | 9.31067 | 28761 ft | 441 kts | 159° |
| 2026-05-05 23:33 | 46.27954 | 9.33179 | 29103 ft | 442 kts | 159° |
| 2026-05-05 23:34 | 46.25252 | 9.35278 | 29450 ft | 441 kts | 159° |
| 2026-05-05 23:34 | 46.22552 | 9.37365 | 29786 ft | 440 kts | 160° |
| 2026-05-05 23:34 | 46.19856 | 9.39444 | 30046 ft | 439 kts | 160° |
| 2026-05-05 23:34 | 46.17167 | 9.41519 | 30328 ft | 438 kts | 160° |
| 2026-05-05 23:35 | 46.14482 | 9.43593 | 30651 ft | 436 kts | 160° |
| 2026-05-05 23:35 | 46.11842 | 9.45635 | 30922 ft | 436 kts | 159° |
| 2026-05-05 23:35 | 46.09164 | 9.47705 | 31089 ft | 438 kts | 160° |
| 2026-05-05 23:35 | 46.06480 | 9.49776 | 31332 ft | 437 kts | 160° |
| 2026-05-05 23:36 | 46.03802 | 9.51839 | 31672 ft | 436 kts | 160° |
| 2026-05-05 23:36 | 46.01130 | 9.53894 | 31976 ft | 435 kts | 160° |
| 2026-05-05 23:36 | 45.98458 | 9.55943 | 32223 ft | 435 kts | 161° |
| 2026-05-05 23:36 | 45.95782 | 9.57990 | 32563 ft | 433 kts | 161° |
| 2026-05-05 23:37 | 45.93132 | 9.60017 | 32913 ft | 431 kts | 161° |
| 2026-05-05 23:37 | 45.90486 | 9.62043 | 33248 ft | 431 kts | 161° |
| 2026-05-05 23:37 | 45.87845 | 9.64065 | 33552 ft | 430 kts | 162° |
| 2026-05-05 23:37 | 45.85210 | 9.66082 | 33855 ft | 428 kts | 162° |
| 2026-05-05 23:38 | 45.82577 | 9.68094 | 34103 ft | 428 kts | 162° |
| 2026-05-05 23:38 | 45.79943 | 9.70097 | 34338 ft | 429 kts | 161° |
| 2026-05-05 23:38 | 45.77306 | 9.72096 | 34562 ft | 429 kts | 161° |
| 2026-05-05 23:38 | 45.74664 | 9.74098 | 34762 ft | 430 kts | 161° |
| 2026-05-05 23:39 | 45.72021 | 9.76100 | 34987 ft | 429 kts | 161° |
| 2026-05-05 23:39 | 45.69378 | 9.78105 | 35193 ft | 430 kts | 161° |
| 2026-05-05 23:39 | 45.66734 | 9.80111 | 35380 ft | 430 kts | 161° |
| 2026-05-05 23:39 | 45.64121 | 9.82090 | 35549 ft | 431 kts | 161° |
| 2026-05-05 23:40 | 45.61466 | 9.84091 | 35705 ft | 432 kts | 160° |
| 2026-05-05 23:40 | 45.58805 | 9.86097 | 35897 ft | 432 kts | 160° |
| 2026-05-05 23:40 | 45.56144 | 9.88105 | 36084 ft | 433 kts | 160° |
| 2026-05-05 23:40 | 45.53480 | 9.90117 | 36264 ft | 433 kts | 160° |
| 2026-05-05 23:41 | 45.50816 | 9.92126 | 36447 ft | 433 kts | 160° |
| 2026-05-05 23:41 | 45.48143 | 9.94137 | 36621 ft | 433 kts | 160° |
| 2026-05-05 23:41 | 45.45472 | 9.96145 | 36786 ft | 434 kts | 160° |
| 2026-05-05 23:41 | 45.42803 | 9.98148 | 36936 ft | 435 kts | 159° |
| 2026-05-05 23:42 | 45.37446 | 10.02155 | 36967 ft | 434 kts | 160° |
| 2026-05-05 23:42 | 45.32098 | 10.06145 | 36949 ft | 434 kts | 160° |
| 2026-05-05 23:43 | 45.26731 | 10.10148 | 36966 ft | 436 kts | 160° |
| 2026-05-05 23:43 | 45.21379 | 10.14137 | 36965 ft | 438 kts | 160° |
| 2026-05-05 23:44 | 45.15976 | 10.18157 | 36962 ft | 438 kts | 160° |
| 2026-05-05 23:44 | 45.10567 | 10.22163 | 36957 ft | 439 kts | 160° |
| 2026-05-05 23:45 | 45.05149 | 10.26155 | 36960 ft | 439 kts | 160° |
| 2026-05-05 23:45 | 44.99792 | 10.30343 | 36982 ft | 448 kts | 150° |
| 2026-05-05 23:46 | 44.94894 | 10.35879 | 36954 ft | 451 kts | 148° |
| 2026-05-05 23:46 | 44.90022 | 10.41461 | 36957 ft | 451 kts | 148° |
| 2026-05-05 23:47 | 44.85138 | 10.47037 | 36968 ft | 452 kts | 148° |
| 2026-05-05 23:47 | 44.80232 | 10.52603 | 36976 ft | 453 kts | 149° |
| 2026-05-05 23:48 | 44.75348 | 10.58119 | 36997 ft | 453 kts | 149° |
| 2026-05-05 23:48 | 44.70430 | 10.63680 | 37005 ft | 454 kts | 148° |
| 2026-05-05 23:49 | 44.65512 | 10.69238 | 36984 ft | 454 kts | 149° |
| 2026-05-05 23:49 | 44.60575 | 10.74791 | 37000 ft | 454 kts | 149° |
| 2026-05-05 23:50 | 44.55635 | 10.80329 | 37016 ft | 455 kts | 149° |
| 2026-05-05 23:50 | 44.50683 | 10.85874 | 37018 ft | 455 kts | 149° |
| 2026-05-05 23:51 | 44.45738 | 10.91399 | 37029 ft | 455 kts | 150° |
| 2026-05-05 23:51 | 44.40787 | 10.96917 | 37045 ft | 455 kts | 150° |
| 2026-05-05 23:52 | 44.35862 | 11.02403 | 37042 ft | 454 kts | 150° |
| 2026-05-05 23:52 | 44.30915 | 11.07910 | 37041 ft | 454 kts | 150° |
| 2026-05-05 23:53 | 44.25962 | 11.13387 | 37037 ft | 454 kts | 150° |
| 2026-05-05 23:53 | 44.21013 | 11.18851 | 37053 ft | 454 kts | 150° |
| 2026-05-05 23:54 | 44.16059 | 11.24310 | 37044 ft | 454 kts | 150° |
| 2026-05-05 23:54 | 44.11132 | 11.29726 | 37039 ft | 454 kts | 150° |
| 2026-05-05 23:55 | 44.06161 | 11.35175 | 37003 ft | 455 kts | 149° |
| 2026-05-05 23:55 | 44.01181 | 11.40634 | 36989 ft | 456 kts | 150° |
| 2026-05-05 23:56 | 43.96189 | 11.46104 | 36992 ft | 457 kts | 150° |
| 2026-05-05 23:56 | 43.91194 | 11.51558 | 36998 ft | 457 kts | 150° |
| 2026-05-05 23:57 | 43.86182 | 11.57012 | 37007 ft | 457 kts | 150° |
| 2026-05-05 23:57 | 43.81173 | 11.62440 | 36996 ft | 457 kts | 150° |
| 2026-05-05 23:58 | 43.76173 | 11.67855 | 36993 ft | 456 kts | 150° |
| 2026-05-05 23:58 | 43.71205 | 11.73241 | 36994 ft | 457 kts | 150° |
| 2026-05-05 23:59 | 43.66191 | 11.78656 | 37002 ft | 458 kts | 150° |
| 2026-05-05 23:59 | 43.61133 | 11.84100 | 37005 ft | 459 kts | 150° |
| 2026-05-06 00:00 | 43.56128 | 11.89475 | 36997 ft | 460 kts | 150° |
| 2026-05-06 00:00 | 43.51074 | 11.94885 | 37010 ft | 460 kts | 150° |
| 2026-05-06 00:01 | 43.46016 | 12.00288 | 37012 ft | 460 kts | 150° |
| 2026-05-06 00:01 | 43.40944 | 12.05692 | 36992 ft | 460 kts | 149° |
| 2026-05-06 00:02 | 43.35888 | 12.11083 | 37016 ft | 460 kts | 149° |
| 2026-05-06 00:02 | 43.30837 | 12.16458 | 37035 ft | 459 kts | 149° |
| 2026-05-06 00:03 | 43.25781 | 12.21819 | 37034 ft | 459 kts | 149° |
| 2026-05-06 00:03 | 43.20725 | 12.27164 | 37043 ft | 459 kts | 149° |
| 2026-05-06 00:04 | 43.15666 | 12.32505 | 37016 ft | 458 kts | 149° |
| 2026-05-06 00:04 | 43.10645 | 12.37797 | 37026 ft | 458 kts | 149° |
| 2026-05-06 00:05 | 43.03068 | 12.45747 | 37027 ft | 457 kts | 149° |
| 2026-05-06 00:06 | 42.98027 | 12.51036 | 37037 ft | 456 kts | 149° |
| 2026-05-06 00:06 | 42.92994 | 12.56299 | 37030 ft | 455 kts | 149° |
| 2026-05-06 00:07 | 42.87966 | 12.61542 | 37043 ft | 455 kts | 149° |
| 2026-05-06 00:07 | 42.83785 | 12.65901 | 37051 ft | 455 kts | 149° |
| 2026-05-06 00:08 | 42.78755 | 12.71126 | 37053 ft | 454 kts | 149° |
| 2026-05-06 00:08 | 42.73719 | 12.76339 | 37054 ft | 455 kts | 149° |
| 2026-05-06 00:09 | 42.68691 | 12.81552 | 37033 ft | 455 kts | 149° |
| 2026-05-06 00:09 | 42.63642 | 12.86772 | 37044 ft | 455 kts | 149° |
| 2026-05-06 00:10 | 42.58598 | 12.91974 | 37053 ft | 455 kts | 149° |
| 2026-05-06 00:10 | 42.53560 | 12.97152 | 37058 ft | 454 kts | 149° |
| 2026-05-06 00:11 | 42.48553 | 13.02295 | 37061 ft | 454 kts | 149° |
| 2026-05-06 00:11 | 42.43516 | 13.07455 | 37057 ft | 453 kts | 149° |
| 2026-05-06 00:12 | 42.38475 | 13.12601 | 37068 ft | 453 kts | 149° |
| 2026-05-06 00:12 | 42.33438 | 13.17735 | 37054 ft | 453 kts | 149° |
| 2026-05-06 00:13 | 42.28402 | 13.22871 | 37056 ft | 453 kts | 149° |
| 2026-05-06 00:13 | 42.23364 | 13.28000 | 37052 ft | 453 kts | 149° |
| 2026-05-06 00:14 | 42.18329 | 13.33100 | 37065 ft | 453 kts | 149° |
| 2026-05-06 00:14 | 42.13567 | 13.38746 | 37065 ft | 457 kts | 142° |
| 2026-05-06 00:15 | 42.08938 | 13.44615 | 37060 ft | 457 kts | 142° |
| 2026-05-06 00:15 | 42.04309 | 13.50486 | 37032 ft | 457 kts | 142° |
| 2026-05-06 00:16 | 41.99671 | 13.56341 | 37046 ft | 457 kts | 142° |
| 2026-05-06 00:16 | 41.95061 | 13.62148 | 37061 ft | 457 kts | 142° |
| 2026-05-06 00:17 | 41.90419 | 13.67988 | 37056 ft | 457 kts | 142° |
| 2026-05-06 00:17 | 41.85869 | 13.73713 | 36961 ft | 437 kts | 142° |
| 2026-05-06 00:17 | 41.83682 | 13.76462 | 36805 ft | 426 kts | 143° |
| 2026-05-06 00:18 | 41.81521 | 13.79169 | 36192 ft | 427 kts | 143° |
| 2026-05-06 00:18 | 41.79310 | 13.81913 | 35167 ft | 440 kts | 143° |
| 2026-05-06 00:18 | 41.77041 | 13.84720 | 34432 ft | 445 kts | 142° |
| 2026-05-06 00:18 | 41.74775 | 13.87534 | 33846 ft | 444 kts | 142° |
| 2026-05-06 00:19 | 41.72521 | 13.90347 | 33300 ft | 442 kts | 142° |
| 2026-05-06 00:19 | 41.70278 | 13.93154 | 32787 ft | 439 kts | 142° |
| 2026-05-06 00:19 | 41.68047 | 13.95949 | 32195 ft | 439 kts | 142° |